sensor_id;sensor_type;location;lat;lon;timestamp;temperature;humidity
2749;DHT22;1382;52.142;11.618;2023-05-09T00:00:14;16.70;38.50
2749;DHT22;1382;52.142;11.618;2023-05-09T00:02:41;16.60;38.50
2749;DHT22;1382;52.142;11.618;2023-05-09T00:05:08;16.60;38.50
2749;DHT22;1382;52.142;11.618;2023-05-09T00:07:36;16.60;38.60
2749;DHT22;1382;52.142;11.618;2023-05-09T00:10:03;16.60;38.70
2749;DHT22;1382;52.142;11.618;2023-05-09T00:12:30;16.50;38.60
2749;DHT22;1382;52.142;11.618;2023-05-09T00:14:57;16.50;38.70
2749;DHT22;1382;52.142;11.618;2023-05-09T00:17:24;16.50;38.70
2749;DHT22;1382;52.142;11.618;2023-05-09T00:19:51;16.40;38.70
2749;DHT22;1382;52.142;11.618;2023-05-09T00:22:18;16.40;38.70
2749;DHT22;1382;52.142;11.618;2023-05-09T00:24:46;16.40;38.80
2749;DHT22;1382;52.142;11.618;2023-05-09T00:27:13;16.30;38.70
2749;DHT22;1382;52.142;11.618;2023-05-09T00:29:40;16.30;38.80
2749;DHT22;1382;52.142;11.618;2023-05-09T00:32:07;16.30;38.90
2749;DHT22;1382;52.142;11.618;2023-05-09T00:34:33;16.20;38.80
2749;DHT22;1382;52.142;11.618;2023-05-09T00:37:00;16.20;38.90
2749;DHT22;1382;52.142;11.618;2023-05-09T00:39:27;16.20;38.90
2749;DHT22;1382;52.142;11.618;2023-05-09T00:41:56;16.20;38.90
2749;DHT22;1382;52.142;11.618;2023-05-09T00:44:22;16.10;38.80
2749;DHT22;1382;52.142;11.618;2023-05-09T00:46:49;16.10;38.90
2749;DHT22;1382;52.142;11.618;2023-05-09T00:49:16;16.10;38.90
2749;DHT22;1382;52.142;11.618;2023-05-09T00:51:42;16.00;38.90
2749;DHT22;1382;52.142;11.618;2023-05-09T00:54:09;16.00;38.90
2749;DHT22;1382;52.142;11.618;2023-05-09T00:56:36;16.00;38.90
2749;DHT22;1382;52.142;11.618;2023-05-09T00:59:04;15.90;38.90
2749;DHT22;1382;52.142;11.618;2023-05-09T01:01:31;15.90;38.90
2749;DHT22;1382;52.142;11.618;2023-05-09T01:03:58;15.90;39.00
2749;DHT22;1382;52.142;11.618;2023-05-09T01:06:29;15.90;39.00
2749;DHT22;1382;52.142;11.618;2023-05-09T01:09:03;15.80;38.90
2749;DHT22;1382;52.142;11.618;2023-05-09T01:11:37;15.70;38.90
2749;DHT22;1382;52.142;11.618;2023-05-09T01:14:13;15.70;39.10
2749;DHT22;1382;52.142;11.618;2023-05-09T01:16:46;15.70;39.00
2749;DHT22;1382;52.142;11.618;2023-05-09T01:19:35;15.60;39.10
2749;DHT22;1382;52.142;11.618;2023-05-09T01:22:07;15.60;39.20
2749;DHT22;1382;52.142;11.618;2023-05-09T01:24:51;15.50;39.10
2749;DHT22;1382;52.142;11.618;2023-05-09T01:27:36;15.50;39.20
2749;DHT22;1382;52.142;11.618;2023-05-09T01:30:07;15.50;39.30
2749;DHT22;1382;52.142;11.618;2023-05-09T01:32:37;15.40;39.30
2749;DHT22;1382;52.142;11.618;2023-05-09T01:35:06;15.40;39.30
2749;DHT22;1382;52.142;11.618;2023-05-09T01:37:38;15.40;39.40
2749;DHT22;1382;52.142;11.618;2023-05-09T01:40:07;15.40;39.40
2749;DHT22;1382;52.142;11.618;2023-05-09T01:42:40;15.30;39.30
2749;DHT22;1382;52.142;11.618;2023-05-09T01:45:10;15.30;39.30
2749;DHT22;1382;52.142;11.618;2023-05-09T01:47:39;15.30;39.50
2749;DHT22;1382;52.142;11.618;2023-05-09T01:50:08;15.20;39.40
2749;DHT22;1382;52.142;11.618;2023-05-09T01:52:37;15.20;39.50
2749;DHT22;1382;52.142;11.618;2023-05-09T01:55:05;15.20;39.50
2749;DHT22;1382;52.142;11.618;2023-05-09T01:57:34;15.10;39.60
2749;DHT22;1382;52.142;11.618;2023-05-09T02:00:02;15.10;39.60
2749;DHT22;1382;52.142;11.618;2023-05-09T02:02:31;15.10;39.60
2749;DHT22;1382;52.142;11.618;2023-05-09T02:04:59;15.10;39.60
2749;DHT22;1382;52.142;11.618;2023-05-09T02:07:28;15.10;40.10
2749;DHT22;1382;52.142;11.618;2023-05-09T02:09:56;15.10;39.70
2749;DHT22;1382;52.142;11.618;2023-05-09T02:12:23;15.00;39.80
2749;DHT22;1382;52.142;11.618;2023-05-09T02:14:50;14.90;39.70
2749;DHT22;1382;52.142;11.618;2023-05-09T02:17:17;14.90;39.80
2749;DHT22;1382;52.142;11.618;2023-05-09T02:19:45;14.90;39.50
2749;DHT22;1382;52.142;11.618;2023-05-09T02:22:12;14.90;39.70
2749;DHT22;1382;52.142;11.618;2023-05-09T02:24:41;14.80;39.80
2749;DHT22;1382;52.142;11.618;2023-05-09T02:27:09;14.80;39.90
2749;DHT22;1382;52.142;11.618;2023-05-09T02:29:41;14.80;39.80
2749;DHT22;1382;52.142;11.618;2023-05-09T02:32:10;14.70;39.80
2749;DHT22;1382;52.142;11.618;2023-05-09T02:34:38;14.70;39.80
2749;DHT22;1382;52.142;11.618;2023-05-09T02:37:08;14.70;39.80
2749;DHT22;1382;52.142;11.618;2023-05-09T02:39:36;14.60;39.70
2749;DHT22;1382;52.142;11.618;2023-05-09T02:42:05;14.60;40.00
2749;DHT22;1382;52.142;11.618;2023-05-09T02:44:32;14.60;40.10
2749;DHT22;1382;52.142;11.618;2023-05-09T02:46:59;14.60;40.10
2749;DHT22;1382;52.142;11.618;2023-05-09T02:49:26;14.60;40.00
2749;DHT22;1382;52.142;11.618;2023-05-09T02:51:58;14.50;39.90
2749;DHT22;1382;52.142;11.618;2023-05-09T02:54:26;14.50;40.60
2749;DHT22;1382;52.142;11.618;2023-05-09T02:56:53;14.50;40.10
2749;DHT22;1382;52.142;11.618;2023-05-09T02:59:20;14.40;40.10
2749;DHT22;1382;52.142;11.618;2023-05-09T03:01:47;14.40;40.10
2749;DHT22;1382;52.142;11.618;2023-05-09T03:04:14;14.40;40.20
2749;DHT22;1382;52.142;11.618;2023-05-09T03:06:40;14.30;40.80
2749;DHT22;1382;52.142;11.618;2023-05-09T03:09:07;14.30;40.10
2749;DHT22;1382;52.142;11.618;2023-05-09T03:11:36;14.30;40.20
2749;DHT22;1382;52.142;11.618;2023-05-09T03:14:03;14.30;40.10
2749;DHT22;1382;52.142;11.618;2023-05-09T03:16:29;14.20;40.10
2749;DHT22;1382;52.142;11.618;2023-05-09T03:18:56;14.20;40.20
2749;DHT22;1382;52.142;11.618;2023-05-09T03:21:23;14.20;40.20
2749;DHT22;1382;52.142;11.618;2023-05-09T03:23:50;14.20;40.10
2749;DHT22;1382;52.142;11.618;2023-05-09T03:26:17;14.20;40.00
2749;DHT22;1382;52.142;11.618;2023-05-09T03:28:45;14.10;40.00
2749;DHT22;1382;52.142;11.618;2023-05-09T03:31:12;14.10;40.10
2749;DHT22;1382;52.142;11.618;2023-05-09T03:33:38;14.10;40.10
2749;DHT22;1382;52.142;11.618;2023-05-09T03:36:06;14.10;40.40
2749;DHT22;1382;52.142;11.618;2023-05-09T03:38:32;14.00;40.20
2749;DHT22;1382;52.142;11.618;2023-05-09T03:40:59;14.00;40.10
2749;DHT22;1382;52.142;11.618;2023-05-09T03:43:26;14.00;40.10
2749;DHT22;1382;52.142;11.618;2023-05-09T03:45:54;14.00;40.10
2749;DHT22;1382;52.142;11.618;2023-05-09T03:48:21;13.90;40.20
2749;DHT22;1382;52.142;11.618;2023-05-09T03:50:47;13.90;40.20
2749;DHT22;1382;52.142;11.618;2023-05-09T03:53:14;13.90;40.30
2749;DHT22;1382;52.142;11.618;2023-05-09T03:55:41;13.80;40.10
2749;DHT22;1382;52.142;11.618;2023-05-09T03:58:07;13.80;41.00
2749;DHT22;1382;52.142;11.618;2023-05-09T04:00:34;13.80;40.30
2749;DHT22;1382;52.142;11.618;2023-05-09T04:03:02;13.80;40.20
2749;DHT22;1382;52.142;11.618;2023-05-09T04:05:29;13.80;40.40
2749;DHT22;1382;52.142;11.618;2023-05-09T04:07:56;13.70;40.30
2749;DHT22;1382;52.142;11.618;2023-05-09T04:10:23;13.70;40.20
2749;DHT22;1382;52.142;11.618;2023-05-09T04:12:50;13.70;40.20
2749;DHT22;1382;52.142;11.618;2023-05-09T04:15:17;13.70;40.30
2749;DHT22;1382;52.142;11.618;2023-05-09T04:17:43;13.70;40.30
2749;DHT22;1382;52.142;11.618;2023-05-09T04:20:12;13.70;40.30
2749;DHT22;1382;52.142;11.618;2023-05-09T04:22:38;13.70;40.30
2749;DHT22;1382;52.142;11.618;2023-05-09T04:25:06;13.60;40.10
2749;DHT22;1382;52.142;11.618;2023-05-09T04:27:33;13.60;40.30
2749;DHT22;1382;52.142;11.618;2023-05-09T04:29:59;13.60;40.20
2749;DHT22;1382;52.142;11.618;2023-05-09T04:32:26;13.60;40.30
2749;DHT22;1382;52.142;11.618;2023-05-09T04:34:53;13.60;40.30
2749;DHT22;1382;52.142;11.618;2023-05-09T04:37:21;13.60;40.20
2749;DHT22;1382;52.142;11.618;2023-05-09T04:39:48;13.60;40.30
2749;DHT22;1382;52.142;11.618;2023-05-09T04:42:15;13.60;40.30
2749;DHT22;1382;52.142;11.618;2023-05-09T04:44:42;13.60;40.50
2749;DHT22;1382;52.142;11.618;2023-05-09T04:47:08;13.60;40.40
2749;DHT22;1382;52.142;11.618;2023-05-09T04:49:35;13.60;40.60
2749;DHT22;1382;52.142;11.618;2023-05-09T04:52:02;13.60;40.50
2749;DHT22;1382;52.142;11.618;2023-05-09T04:54:30;13.60;40.30
2749;DHT22;1382;52.142;11.618;2023-05-09T04:56:56;13.60;40.60
2749;DHT22;1382;52.142;11.618;2023-05-09T04:59:42;13.60;40.60
2749;DHT22;1382;52.142;11.618;2023-05-09T05:02:09;13.60;40.50
2749;DHT22;1382;52.142;11.618;2023-05-09T05:04:35;13.60;40.60
2749;DHT22;1382;52.142;11.618;2023-05-09T05:07:02;13.60;40.50
2749;DHT22;1382;52.142;11.618;2023-05-09T05:09:30;13.60;40.40
2749;DHT22;1382;52.142;11.618;2023-05-09T05:11:57;13.60;40.70
2749;DHT22;1382;52.142;11.618;2023-05-09T05:14:28;13.60;40.80
2749;DHT22;1382;52.142;11.618;2023-05-09T05:16:55;13.60;40.80
2749;DHT22;1382;52.142;11.618;2023-05-09T05:19:22;13.60;40.70
2749;DHT22;1382;52.142;11.618;2023-05-09T05:21:48;13.70;40.90
2749;DHT22;1382;52.142;11.618;2023-05-09T05:24:15;13.70;40.80
2749;DHT22;1382;52.142;11.618;2023-05-09T05:26:43;13.70;40.80
2749;DHT22;1382;52.142;11.618;2023-05-09T05:29:10;13.80;41.00
2749;DHT22;1382;52.142;11.618;2023-05-09T05:31:36;13.80;40.70
2749;DHT22;1382;52.142;11.618;2023-05-09T05:34:03;13.90;41.10
2749;DHT22;1382;52.142;11.618;2023-05-09T05:36:30;14.00;41.20
2749;DHT22;1382;52.142;11.618;2023-05-09T05:38:56;14.00;40.90
2749;DHT22;1382;52.142;11.618;2023-05-09T05:41:23;14.10;41.10
2749;DHT22;1382;52.142;11.618;2023-05-09T05:43:51;14.20;40.70
2749;DHT22;1382;52.142;11.618;2023-05-09T05:46:20;14.30;41.00
2749;DHT22;1382;52.142;11.618;2023-05-09T05:48:47;14.40;41.10
2749;DHT22;1382;52.142;11.618;2023-05-09T05:51:13;14.50;41.20
2749;DHT22;1382;52.142;11.618;2023-05-09T05:53:40;14.60;41.30
2749;DHT22;1382;52.142;11.618;2023-05-09T05:56:07;14.80;41.60
2749;DHT22;1382;52.142;11.618;2023-05-09T05:58:34;14.90;41.40
2749;DHT22;1382;52.142;11.618;2023-05-09T06:01:02;15.00;41.30
2749;DHT22;1382;52.142;11.618;2023-05-09T06:03:29;15.20;41.30
2749;DHT22;1382;52.142;11.618;2023-05-09T06:05:55;15.30;41.30
2749;DHT22;1382;52.142;11.618;2023-05-09T06:08:22;15.40;41.40
2749;DHT22;1382;52.142;11.618;2023-05-09T06:10:49;15.50;41.40
2749;DHT22;1382;52.142;11.618;2023-05-09T06:13:16;15.70;41.50
2749;DHT22;1382;52.142;11.618;2023-05-09T06:15:43;15.80;41.30
2749;DHT22;1382;52.142;11.618;2023-05-09T06:18:11;15.90;41.10
2749;DHT22;1382;52.142;11.618;2023-05-09T06:20:37;16.10;41.20
2749;DHT22;1382;52.142;11.618;2023-05-09T06:23:04;16.20;41.10
2749;DHT22;1382;52.142;11.618;2023-05-09T06:25:31;16.30;41.00
2749;DHT22;1382;52.142;11.618;2023-05-09T06:27:58;16.50;41.00
2749;DHT22;1382;52.142;11.618;2023-05-09T06:30:24;16.60;40.90
2749;DHT22;1382;52.142;11.618;2023-05-09T06:32:52;16.70;40.90
2749;DHT22;1382;52.142;11.618;2023-05-09T06:35:21;16.90;40.90
2749;DHT22;1382;52.142;11.618;2023-05-09T06:37:47;17.00;40.80
2749;DHT22;1382;52.142;11.618;2023-05-09T06:40:15;17.20;41.00
2749;DHT22;1382;52.142;11.618;2023-05-09T06:42:41;17.30;40.80
2749;DHT22;1382;52.142;11.618;2023-05-09T06:45:09;17.40;40.80
2749;DHT22;1382;52.142;11.618;2023-05-09T06:47:36;17.60;40.90
2749;DHT22;1382;52.142;11.618;2023-05-09T06:50:03;17.70;40.80
2749;DHT22;1382;52.142;11.618;2023-05-09T06:52:31;17.90;40.50
2749;DHT22;1382;52.142;11.618;2023-05-09T06:54:57;18.00;40.40
2749;DHT22;1382;52.142;11.618;2023-05-09T06:57:24;18.20;40.40
2749;DHT22;1382;52.142;11.618;2023-05-09T06:59:51;18.30;40.20
2749;DHT22;1382;52.142;11.618;2023-05-09T07:02:18;18.50;40.20
2749;DHT22;1382;52.142;11.618;2023-05-09T07:04:45;18.60;40.50
2749;DHT22;1382;52.142;11.618;2023-05-09T07:07:11;18.80;39.80
2749;DHT22;1382;52.142;11.618;2023-05-09T07:09:39;18.90;40.30
2749;DHT22;1382;52.142;11.618;2023-05-09T07:12:06;19.00;40.00
2749;DHT22;1382;52.142;11.618;2023-05-09T07:14:33;19.10;39.90
2749;DHT22;1382;52.142;11.618;2023-05-09T07:17:00;19.30;39.40
2749;DHT22;1382;52.142;11.618;2023-05-09T07:19:46;19.40;39.90
2749;DHT22;1382;52.142;11.618;2023-05-09T07:22:13;19.60;40.30
2749;DHT22;1382;52.142;11.618;2023-05-09T07:24:41;19.70;39.50
2749;DHT22;1382;52.142;11.618;2023-05-09T07:27:08;19.90;39.60
2749;DHT22;1382;52.142;11.618;2023-05-09T07:29:34;20.00;39.30
2749;DHT22;1382;52.142;11.618;2023-05-09T07:32:01;20.10;39.10
2749;DHT22;1382;52.142;11.618;2023-05-09T07:34:28;20.20;38.90
2749;DHT22;1382;52.142;11.618;2023-05-09T07:36:55;20.30;39.00
2749;DHT22;1382;52.142;11.618;2023-05-09T07:39:21;20.40;38.70
2749;DHT22;1382;52.142;11.618;2023-05-09T07:41:49;20.60;38.90
2749;DHT22;1382;52.142;11.618;2023-05-09T07:44:16;20.70;38.80
2749;DHT22;1382;52.142;11.618;2023-05-09T07:46:43;20.80;38.60
2749;DHT22;1382;52.142;11.618;2023-05-09T07:49:10;20.90;38.80
2749;DHT22;1382;52.142;11.618;2023-05-09T07:51:36;21.00;38.50
2749;DHT22;1382;52.142;11.618;2023-05-09T07:54:03;21.20;38.00
2749;DHT22;1382;52.142;11.618;2023-05-09T07:56:30;21.30;37.60
2749;DHT22;1382;52.142;11.618;2023-05-09T07:58:58;21.40;37.90
2749;DHT22;1382;52.142;11.618;2023-05-09T08:01:24;21.50;38.10
2749;DHT22;1382;52.142;11.618;2023-05-09T08:03:51;21.60;38.20
2749;DHT22;1382;52.142;11.618;2023-05-09T08:06:18;21.70;37.60
2749;DHT22;1382;52.142;11.618;2023-05-09T08:08:45;21.80;38.00
2749;DHT22;1382;52.142;11.618;2023-05-09T08:11:12;21.90;37.90
2749;DHT22;1382;52.142;11.618;2023-05-09T08:13:38;21.90;37.90
2749;DHT22;1382;52.142;11.618;2023-05-09T08:16:06;22.00;37.70
2749;DHT22;1382;52.142;11.618;2023-05-09T08:18:33;22.10;37.40
2749;DHT22;1382;52.142;11.618;2023-05-09T08:21:00;22.20;37.60
2749;DHT22;1382;52.142;11.618;2023-05-09T08:23:27;22.30;37.80
2749;DHT22;1382;52.142;11.618;2023-05-09T08:25:55;22.40;37.80
2749;DHT22;1382;52.142;11.618;2023-05-09T08:28:21;22.50;37.30
2749;DHT22;1382;52.142;11.618;2023-05-09T08:30:48;22.50;36.80
2749;DHT22;1382;52.142;11.618;2023-05-09T08:33:16;22.70;37.30
2749;DHT22;1382;52.142;11.618;2023-05-09T08:35:43;22.80;37.20
2749;DHT22;1382;52.142;11.618;2023-05-09T08:38:10;22.80;37.50
2749;DHT22;1382;52.142;11.618;2023-05-09T08:40:37;22.90;36.90
2749;DHT22;1382;52.142;11.618;2023-05-09T08:43:05;23.00;37.70
2749;DHT22;1382;52.142;11.618;2023-05-09T08:45:35;23.00;36.40
2749;DHT22;1382;52.142;11.618;2023-05-09T08:48:05;23.10;36.60
2749;DHT22;1382;52.142;11.618;2023-05-09T08:50:33;23.20;36.30
2749;DHT22;1382;52.142;11.618;2023-05-09T08:53:00;23.30;36.30
2749;DHT22;1382;52.142;11.618;2023-05-09T08:55:27;23.50;37.20
2749;DHT22;1382;52.142;11.618;2023-05-09T08:57:54;23.50;37.00
2749;DHT22;1382;52.142;11.618;2023-05-09T09:00:21;23.50;37.10
2749;DHT22;1382;52.142;11.618;2023-05-09T09:02:49;23.60;36.30
2749;DHT22;1382;52.142;11.618;2023-05-09T09:05:16;23.80;37.00
2749;DHT22;1382;52.142;11.618;2023-05-09T09:08:06;23.80;37.10
2749;DHT22;1382;52.142;11.618;2023-05-09T09:10:33;23.90;36.50
2749;DHT22;1382;52.142;11.618;2023-05-09T09:13:02;23.90;35.80
2749;DHT22;1382;52.142;11.618;2023-05-09T09:15:33;24.10;34.60
2749;DHT22;1382;52.142;11.618;2023-05-09T09:18:05;24.20;35.30
2749;DHT22;1382;52.142;11.618;2023-05-09T09:20:33;24.20;35.70
2749;DHT22;1382;52.142;11.618;2023-05-09T09:23:02;24.30;36.50
2749;DHT22;1382;52.142;11.618;2023-05-09T09:25:30;24.40;36.00
2749;DHT22;1382;52.142;11.618;2023-05-09T09:27:57;24.40;36.10
2749;DHT22;1382;52.142;11.618;2023-05-09T09:30:24;24.50;35.70
2749;DHT22;1382;52.142;11.618;2023-05-09T09:32:50;24.60;35.30
2749;DHT22;1382;52.142;11.618;2023-05-09T09:35:17;24.70;35.00
2749;DHT22;1382;52.142;11.618;2023-05-09T09:37:44;24.80;35.50
2749;DHT22;1382;52.142;11.618;2023-05-09T09:40:11;24.80;34.40
2749;DHT22;1382;52.142;11.618;2023-05-09T09:42:44;24.90;33.00
2749;DHT22;1382;52.142;11.618;2023-05-09T09:45:12;25.00;34.00
2749;DHT22;1382;52.142;11.618;2023-05-09T09:47:39;25.10;35.70
2749;DHT22;1382;52.142;11.618;2023-05-09T09:50:12;25.10;33.70
2749;DHT22;1382;52.142;11.618;2023-05-09T09:52:47;25.20;33.30
2749;DHT22;1382;52.142;11.618;2023-05-09T09:55:14;25.30;34.00
2749;DHT22;1382;52.142;11.618;2023-05-09T09:57:42;25.40;34.10
2749;DHT22;1382;52.142;11.618;2023-05-09T10:00:10;25.40;34.30
2749;DHT22;1382;52.142;11.618;2023-05-09T10:02:46;25.50;33.80
2749;DHT22;1382;52.142;11.618;2023-05-09T10:05:18;25.60;33.00
2749;DHT22;1382;52.142;11.618;2023-05-09T10:07:45;25.70;32.90
2749;DHT22;1382;52.142;11.618;2023-05-09T10:10:11;25.80;34.80
2749;DHT22;1382;52.142;11.618;2023-05-09T10:12:39;25.80;34.50
2749;DHT22;1382;52.142;11.618;2023-05-09T10:15:09;25.90;34.60
2749;DHT22;1382;52.142;11.618;2023-05-09T10:17:37;25.90;33.30
2749;DHT22;1382;52.142;11.618;2023-05-09T10:20:05;26.00;34.20
2749;DHT22;1382;52.142;11.618;2023-05-09T10:22:33;26.10;33.50
2749;DHT22;1382;52.142;11.618;2023-05-09T10:25:02;26.10;33.00
2749;DHT22;1382;52.142;11.618;2023-05-09T10:27:32;26.20;33.00
2749;DHT22;1382;52.142;11.618;2023-05-09T10:30:06;26.20;33.20
2749;DHT22;1382;52.142;11.618;2023-05-09T10:32:42;26.30;32.50
2749;DHT22;1382;52.142;11.618;2023-05-09T10:35:12;26.40;32.30
2749;DHT22;1382;52.142;11.618;2023-05-09T10:37:40;26.40;33.70
2749;DHT22;1382;52.142;11.618;2023-05-09T10:40:08;26.50;33.90
2749;DHT22;1382;52.142;11.618;2023-05-09T10:42:36;26.60;31.80
2749;DHT22;1382;52.142;11.618;2023-05-09T10:45:04;26.70;31.50
2749;DHT22;1382;52.142;11.618;2023-05-09T10:47:31;26.70;32.50
2749;DHT22;1382;52.142;11.618;2023-05-09T10:49:59;26.80;32.70
2749;DHT22;1382;52.142;11.618;2023-05-09T10:52:30;26.80;32.00
2749;DHT22;1382;52.142;11.618;2023-05-09T10:54:58;27.00;33.50
2749;DHT22;1382;52.142;11.618;2023-05-09T10:57:26;26.90;34.10
2749;DHT22;1382;52.142;11.618;2023-05-09T10:59:54;27.10;33.60
2749;DHT22;1382;52.142;11.618;2023-05-09T11:02:21;27.00;33.70
2749;DHT22;1382;52.142;11.618;2023-05-09T11:05:16;27.10;33.50
2749;DHT22;1382;52.142;11.618;2023-05-09T11:07:43;27.30;32.90
2749;DHT22;1382;52.142;11.618;2023-05-09T11:10:14;27.30;32.10
2749;DHT22;1382;52.142;11.618;2023-05-09T11:12:55;27.30;32.90
2749;DHT22;1382;52.142;11.618;2023-05-09T11:15:24;27.40;32.90
2749;DHT22;1382;52.142;11.618;2023-05-09T11:18:04;27.50;33.70
2749;DHT22;1382;52.142;11.618;2023-05-09T11:20:34;27.60;32.40
2749;DHT22;1382;52.142;11.618;2023-05-09T11:23:03;27.60;31.60
2749;DHT22;1382;52.142;11.618;2023-05-09T11:25:30;27.80;32.70
2749;DHT22;1382;52.142;11.618;2023-05-09T11:27:59;27.70;32.80
2749;DHT22;1382;52.142;11.618;2023-05-09T11:30:35;27.70;32.50
2749;DHT22;1382;52.142;11.618;2023-05-09T11:33:03;27.80;31.90
2749;DHT22;1382;52.142;11.618;2023-05-09T11:35:30;28.00;33.30
2749;DHT22;1382;52.142;11.618;2023-05-09T11:38:01;28.00;33.50
2749;DHT22;1382;52.142;11.618;2023-05-09T11:40:29;28.00;32.50
2749;DHT22;1382;52.142;11.618;2023-05-09T11:42:57;28.00;30.80
2749;DHT22;1382;52.142;11.618;2023-05-09T11:45:26;28.10;31.70
2749;DHT22;1382;52.142;11.618;2023-05-09T11:47:53;28.20;33.10
2749;DHT22;1382;52.142;11.618;2023-05-09T11:50:20;28.20;31.50
2749;DHT22;1382;52.142;11.618;2023-05-09T11:52:47;28.40;31.40
2749;DHT22;1382;52.142;11.618;2023-05-09T11:55:16;28.40;30.80
2749;DHT22;1382;52.142;11.618;2023-05-09T11:57:46;28.50;30.90
2749;DHT22;1382;52.142;11.618;2023-05-09T12:00:16;28.50;31.90
2749;DHT22;1382;52.142;11.618;2023-05-09T12:02:44;28.50;32.60
2749;DHT22;1382;52.142;11.618;2023-05-09T12:05:12;28.60;32.60
2749;DHT22;1382;52.142;11.618;2023-05-09T12:07:40;28.60;32.30
2749;DHT22;1382;52.142;11.618;2023-05-09T12:10:08;28.70;33.20
2749;DHT22;1382;52.142;11.618;2023-05-09T12:12:41;28.70;31.60
2749;DHT22;1382;52.142;11.618;2023-05-09T12:15:09;28.70;31.20
2749;DHT22;1382;52.142;11.618;2023-05-09T12:17:36;28.70;32.50
2749;DHT22;1382;52.142;11.618;2023-05-09T12:20:03;28.80;31.60
2749;DHT22;1382;52.142;11.618;2023-05-09T12:22:30;28.90;32.10
2749;DHT22;1382;52.142;11.618;2023-05-09T12:25:00;28.90;31.60
2749;DHT22;1382;52.142;11.618;2023-05-09T12:27:27;28.90;32.50
2749;DHT22;1382;52.142;11.618;2023-05-09T12:29:56;29.00;32.90
2749;DHT22;1382;52.142;11.618;2023-05-09T12:32:23;29.00;31.30
2749;DHT22;1382;52.142;11.618;2023-05-09T12:34:50;29.00;32.10
2749;DHT22;1382;52.142;11.618;2023-05-09T12:37:17;29.00;32.90
2749;DHT22;1382;52.142;11.618;2023-05-09T12:39:59;29.00;30.10
2749;DHT22;1382;52.142;11.618;2023-05-09T12:42:26;29.10;32.80
2749;DHT22;1382;52.142;11.618;2023-05-09T12:44:53;29.10;31.30
2749;DHT22;1382;52.142;11.618;2023-05-09T12:47:21;29.20;32.00
2749;DHT22;1382;52.142;11.618;2023-05-09T12:49:51;29.10;30.50
2749;DHT22;1382;52.142;11.618;2023-05-09T12:52:20;29.20;32.00
2749;DHT22;1382;52.142;11.618;2023-05-09T12:54:46;29.30;31.00
2749;DHT22;1382;52.142;11.618;2023-05-09T12:57:20;29.30;30.90
2749;DHT22;1382;52.142;11.618;2023-05-09T12:59:47;29.30;29.90
2749;DHT22;1382;52.142;11.618;2023-05-09T13:02:14;29.30;29.00
2749;DHT22;1382;52.142;11.618;2023-05-09T13:04:42;29.40;30.80
2749;DHT22;1382;52.142;11.618;2023-05-09T13:07:09;29.40;31.70
2749;DHT22;1382;52.142;11.618;2023-05-09T13:09:53;29.40;30.80
2749;DHT22;1382;52.142;11.618;2023-05-09T13:12:20;29.50;31.00
2749;DHT22;1382;52.142;11.618;2023-05-09T13:14:46;29.50;30.90
2749;DHT22;1382;52.142;11.618;2023-05-09T13:17:13;29.50;31.80
2749;DHT22;1382;52.142;11.618;2023-05-09T13:19:41;29.50;31.60
2749;DHT22;1382;52.142;11.618;2023-05-09T13:22:08;29.60;29.90
2749;DHT22;1382;52.142;11.618;2023-05-09T13:24:37;29.60;30.00
2749;DHT22;1382;52.142;11.618;2023-05-09T13:27:04;29.60;31.10
2749;DHT22;1382;52.142;11.618;2023-05-09T13:29:31;29.70;30.50
2749;DHT22;1382;52.142;11.618;2023-05-09T13:31:57;29.60;29.50
2749;DHT22;1382;52.142;11.618;2023-05-09T13:34:24;29.60;30.00
2749;DHT22;1382;52.142;11.618;2023-05-09T13:36:52;29.70;29.90
2749;DHT22;1382;52.142;11.618;2023-05-09T13:39:19;29.70;29.50
2749;DHT22;1382;52.142;11.618;2023-05-09T13:41:46;29.80;28.40
2749;DHT22;1382;52.142;11.618;2023-05-09T13:44:12;29.70;29.40
2749;DHT22;1382;52.142;11.618;2023-05-09T13:46:40;29.60;29.20
2749;DHT22;1382;52.142;11.618;2023-05-09T13:49:07;29.60;29.40
2749;DHT22;1382;52.142;11.618;2023-05-09T13:51:33;29.60;28.90
2749;DHT22;1382;52.142;11.618;2023-05-09T13:54:01;29.60;28.60
2749;DHT22;1382;52.142;11.618;2023-05-09T13:56:28;29.50;28.70
2749;DHT22;1382;52.142;11.618;2023-05-09T13:58:55;29.40;28.20
2749;DHT22;1382;52.142;11.618;2023-05-09T14:01:22;29.40;27.30
2749;DHT22;1382;52.142;11.618;2023-05-09T14:03:51;29.40;27.90
2749;DHT22;1382;52.142;11.618;2023-05-09T14:06:18;29.30;28.20
2749;DHT22;1382;52.142;11.618;2023-05-09T14:08:44;29.40;27.20
2749;DHT22;1382;52.142;11.618;2023-05-09T14:11:12;29.40;28.40
2749;DHT22;1382;52.142;11.618;2023-05-09T14:13:39;29.40;28.10
2749;DHT22;1382;52.142;11.618;2023-05-09T14:16:06;29.30;28.10
2749;DHT22;1382;52.142;11.618;2023-05-09T14:18:33;29.30;28.20
2749;DHT22;1382;52.142;11.618;2023-05-09T14:20:59;29.30;28.60
2749;DHT22;1382;52.142;11.618;2023-05-09T14:23:26;29.30;27.00
2749;DHT22;1382;52.142;11.618;2023-05-09T14:25:53;29.30;28.30
2749;DHT22;1382;52.142;11.618;2023-05-09T14:28:21;29.40;28.60
2749;DHT22;1382;52.142;11.618;2023-05-09T14:30:47;29.30;28.40
2749;DHT22;1382;52.142;11.618;2023-05-09T14:33:14;29.40;26.60
2749;DHT22;1382;52.142;11.618;2023-05-09T14:35:41;29.30;26.80
2749;DHT22;1382;52.142;11.618;2023-05-09T14:38:08;29.30;24.80
2749;DHT22;1382;52.142;11.618;2023-05-09T14:40:34;29.10;24.80
2749;DHT22;1382;52.142;11.618;2023-05-09T14:43:01;29.00;24.20
2749;DHT22;1382;52.142;11.618;2023-05-09T14:45:31;28.70;22.60
2749;DHT22;1382;52.142;11.618;2023-05-09T14:47:58;28.50;23.50
2749;DHT22;1382;52.142;11.618;2023-05-09T14:50:24;28.50;24.10
2749;DHT22;1382;52.142;11.618;2023-05-09T14:52:51;28.60;24.70
2749;DHT22;1382;52.142;11.618;2023-05-09T14:55:18;28.50;23.30
2749;DHT22;1382;52.142;11.618;2023-05-09T14:57:45;28.50;23.60
2749;DHT22;1382;52.142;11.618;2023-05-09T15:00:12;28.50;24.20
2749;DHT22;1382;52.142;11.618;2023-05-09T15:02:49;28.50;24.10
2749;DHT22;1382;52.142;11.618;2023-05-09T15:05:16;28.50;23.90
2749;DHT22;1382;52.142;11.618;2023-05-09T15:07:43;28.50;23.70
2749;DHT22;1382;52.142;11.618;2023-05-09T15:10:10;28.50;24.00
2749;DHT22;1382;52.142;11.618;2023-05-09T15:12:37;28.40;23.70
2749;DHT22;1382;52.142;11.618;2023-05-09T15:15:14;28.20;22.30
2749;DHT22;1382;52.142;11.618;2023-05-09T15:17:42;28.10;22.70
2749;DHT22;1382;52.142;11.618;2023-05-09T15:20:11;28.00;23.40
2749;DHT22;1382;52.142;11.618;2023-05-09T15:22:38;27.90;23.30
2749;DHT22;1382;52.142;11.618;2023-05-09T15:25:05;27.90;23.90
2749;DHT22;1382;52.142;11.618;2023-05-09T15:27:32;28.00;24.00
2749;DHT22;1382;52.142;11.618;2023-05-09T15:29:59;28.10;23.90
2749;DHT22;1382;52.142;11.618;2023-05-09T15:32:26;28.00;23.70
2749;DHT22;1382;52.142;11.618;2023-05-09T15:34:53;28.00;23.70
2749;DHT22;1382;52.142;11.618;2023-05-09T15:37:21;28.00;23.80
2749;DHT22;1382;52.142;11.618;2023-05-09T15:39:47;27.90;23.30
2749;DHT22;1382;52.142;11.618;2023-05-09T15:42:15;27.90;23.80
2749;DHT22;1382;52.142;11.618;2023-05-09T15:44:42;27.80;23.30
2749;DHT22;1382;52.142;11.618;2023-05-09T15:47:09;27.70;23.70
2749;DHT22;1382;52.142;11.618;2023-05-09T15:49:36;27.70;23.80